Terminal Aerodrome Forecast
Issued by NWS

Home | Current Version | Previous Version | Text Only | Print | Product List | Glossary On
Versions: 1 2 3 4 5 6 7 8 9 10 11 12 13 14 15 16
008
FTUS46 KLOX 240530
TAFPMD
TAF
KPMD 240530Z 2406/2506 22015KT P6SM SCT050
     FM241600 23015G25KT P6SM BKN100
     FM242100 23022G32KT P6SM BKN100
     FM250300 23015KT P6SM BKN100=

USA.gov is the U.S. government's official web portal to all federal, state and local government web resources and services.